»·PEaware :: N1JG KHND-KSNA

N1JG :: KHND-KSNA

FLIGHT INFORMATION

Flight Status: Arrived
Operator: Privately registered:
United States
More flights under this callsign
Pilot: Saso K. (7898)
Aircraft: SOCATA TBM-900
(TBM9)
More flights by this aircraft type
Origin: KHND Henderson
United States
Destination: KSNA John Wayne-Orange Co
United States
More flights between these airports :: More routes between these airports
Route: +PALLY5 HEC KAYOH7
File this flight plan on PilotEdge
Remarks:
Altitude:
(Current/Filed)
24,000ft
Speed:
(Current/Filed)
315kts
Departed: 26-Aug-18 02:27 PM
Arrived: 26-Aug-18 03:28 PM
Distance/Time
Traveled:
194nm/1:01
Distance/Time
To Go:
Arrived

Flight Plot

Page will automatically refresh every two minutes.

Flight plan parsing failed; only flown route is shown


Map Options




Map Legend


Flown Route
Filed Route
Departure Airport
Arrival Airport
Navaid (VOR, NDB)
Fix

Horizontal Profiles

Position Reports

Time Latitude Longitude Heading Altitude Ground
Speed
26-Aug-18 14:13 35.973046 -115.138253 185 2426ft 0kts
26-Aug-18 14:14 35.973046 -115.138253 185 2426ft 0kts
26-Aug-18 14:15 35.973046 -115.138253 185 2426ft 0kts
26-Aug-18 14:16 35.973046 -115.138253 185 2426ft 0kts
26-Aug-18 14:17 35.973046 -115.138253 185 2426ft 0kts
26-Aug-18 14:18 35.973046 -115.138253 185 2426ft 0kts
26-Aug-18 14:19 35.973045 -115.138253 185 2426ft 0kts
26-Aug-18 14:20 35.973046 -115.138253 185 2426ft 0kts
26-Aug-18 14:21 35.973046 -115.138253 185 2426ft 0kts
26-Aug-18 14:22 35.972906 -115.137477 93 2429ft 9kts
26-Aug-18 14:23 35.975465 -115.136436 359 2420ft 15kts
26-Aug-18 14:24 35.980095 -115.136371 359 2401ft 9kts
26-Aug-18 14:25 35.980791 -115.136189 65 2398ft 0kts
26-Aug-18 14:26 35.980791 -115.136189 65 2398ft 0kts
26-Aug-18 14:27 35.980791 -115.136189 65 2398ft 0kts
26-Aug-18 14:28 35.978693 -115.135358 181 2407ft 58kts
26-Aug-18 14:29 35.953616 -115.136620 187 3542ft 134kts
26-Aug-18 14:30 35.915181 -115.160093 212 6378ft 132kts
26-Aug-18 14:31 35.884575 -115.161238 178 8146ft 139kts
26-Aug-18 14:32 35.838595 -115.155897 190 10737ft 146kts
26-Aug-18 14:33 35.804780 -115.160636 191 12692ft 151kts
26-Aug-18 14:34 35.766580 -115.176075 224 15035ft 151kts
26-Aug-18 14:35 35.737208 -115.212820 227 17335ft 154kts
26-Aug-18 14:36 35.707508 -115.251087 228 19578ft 159kts
26-Aug-18 14:37 35.677321 -115.290616 229 21809ft 162kts
26-Aug-18 14:38 35.646904 -115.332537 229 23596ft 177kts
26-Aug-18 14:39 35.609351 -115.384282 229 24018ft 235kts
26-Aug-18 14:40 35.562006 -115.449400 229 23995ft 267kts
26-Aug-18 14:41 35.511710 -115.518446 229 23990ft 274kts
26-Aug-18 14:42 35.460117 -115.587621 228 23988ft 276kts
26-Aug-18 14:43 35.408306 -115.656832 228 23990ft 277kts
26-Aug-18 14:44 35.356546 -115.725838 228 23994ft 278kts
26-Aug-18 14:45 35.304419 -115.795186 228 23999ft 278kts
26-Aug-18 14:46 35.252083 -115.864669 228 24004ft 278kts
26-Aug-18 14:47 35.199834 -115.933897 228 24008ft 278kts
26-Aug-18 14:48 35.147436 -116.003178 228 24008ft 278kts
26-Aug-18 14:49 35.094917 -116.072480 228 24007ft 278kts
26-Aug-18 14:50 35.042572 -116.141411 228 24007ft 278kts
26-Aug-18 14:51 34.991162 -116.208964 228 24012ft 277kts
26-Aug-18 14:52 34.939017 -116.277356 228 24008ft 276kts
26-Aug-18 14:53 34.887056 -116.345368 229 23993ft 275kts
26-Aug-18 14:54 34.834354 -116.414319 228 20286ft 321kts
26-Aug-18 14:55 34.774081 -116.491203 226 14540ft 312kts
26-Aug-18 14:56 34.716886 -116.561624 225 11966ft 273kts
26-Aug-18 14:57 34.664269 -116.626297 225 11972ft 267kts
26-Aug-18 14:58 34.612675 -116.689600 225 11973ft 266kts
26-Aug-18 14:59 34.560813 -116.753118 225 11972ft 265kts
26-Aug-18 15:00 34.519977 -116.829179 241 11252ft 282kts
26-Aug-18 15:01 34.482529 -116.911896 241 10266ft 280kts
26-Aug-18 15:02 34.439095 -116.985288 210 10028ft 265kts
26-Aug-18 15:03 34.376387 -117.027292 210 10029ft 263kts
26-Aug-18 15:04 34.312821 -117.069661 210 10030ft 265kts
26-Aug-18 15:05 34.249176 -117.111763 210 10036ft 264kts
26-Aug-18 15:06 34.185647 -117.154291 211 10037ft 264kts
26-Aug-18 15:07 34.123459 -117.196853 211 9621ft 270kts
26-Aug-18 15:08 34.060044 -117.240682 211 8476ft 267kts
26-Aug-18 15:09 34.005172 -117.290425 219 8019ft 252kts
26-Aug-18 15:10 33.949273 -117.340171 219 8026ft 258kts
26-Aug-18 15:11 33.899336 -117.386771 219 8017ft 219kts
26-Aug-18 15:12 33.854700 -117.428158 219 8020ft 220kts
26-Aug-18 15:13 33.807293 -117.472034 219 8020ft 220kts
26-Aug-18 15:14 33.780116 -117.529900 270 8020ft 214kts
26-Aug-18 15:15 33.780398 -117.599093 272 8008ft 214kts
26-Aug-18 15:16 33.781431 -117.668364 282 7998ft 213kts
26-Aug-18 15:17 33.792806 -117.733228 281 6322ft 204kts
26-Aug-18 15:18 33.804173 -117.796987 281 5016ft 196kts
26-Aug-18 15:19 33.824734 -117.852997 336 4836ft 216kts
26-Aug-18 15:20 33.876911 -117.825191 31 4016ft 221kts
26-Aug-18 15:21 33.903789 -117.771219 91 4016ft 209kts
26-Aug-18 15:22 33.875256 -117.739923 217 3990ft 153kts
26-Aug-18 15:23 33.835677 -117.767999 209 3172ft 181kts
26-Aug-18 15:24 33.795513 -117.793384 209 2518ft 163kts
26-Aug-18 15:25 33.757562 -117.817341 208 1718ft 159kts
26-Aug-18 15:26 33.719669 -117.841240 208 956ft 136kts
26-Aug-18 15:27 33.696412 -117.855804 208 405ft 88kts
26-Aug-18 15:28 33.676804 -117.868160 208 46ft 50kts
26-Aug-18 15:29 33.669448 -117.871972 141 52ft 4kts
26-Aug-18 15:30 33.669148 -117.871614 128 52ft 7kts
26-Aug-18 15:31 33.666513 -117.873409 213 52ft 11kts
26-Aug-18 15:32 33.665313 -117.873783 204 52ft 0kts
26-Aug-18 15:33 33.665313 -117.873783 204 52ft 0kts

Navigation Log

Ident Type
Flight plan parsing failed, navigation log unavailable